Time;durP1;ratioP1;P1;durP2;ratioP2;P2;SDS_P1;SDS_P2;PMS_P1;PMS_P2;Temp;Humidity;BMP_temperature;BMP_pressure;BME280_temperature;BME280_humidity;BME280_pressure;Samples;Min_cycle;Max_cycle;Signal;HPM_P1;HPM_P2
2023/09/15 00:02:24;;;;;;;24.55;17.15;;;;;;;10.78;100.00;102133.16;5073336;28;20123;-75
2023/09/15 00:04:50;;;;;;;23.23;18.50;;;;;;;10.77;100.00;102129.63;5073539;28;20025;-75
2023/09/15 00:07:15;;;;;;;24.23;17.40;;;;;;;10.76;100.00;102132.41;5073024;28;20368;-75
2023/09/15 00:09:41;;;;;;;21.92;17.23;;;;;;;10.71;100.00;102139.88;5073048;28;20056;-74
2023/09/15 00:12:07;;;;;;;20.58;14.68;;;;;;;10.67;100.00;102131.25;5072725;28;20028;-75
2023/09/15 00:14:34;;;;;;;21.48;17.00;;;;;;;10.68;100.00;102134.78;5072164;28;20029;-74
2023/09/15 00:17:00;;;;;;;22.30;16.40;;;;;;;10.67;100.00;102135.72;5072063;28;20120;-76
2023/09/15 00:19:27;;;;;;;23.98;16.77;;;;;;;10.66;100.00;102137.56;5073337;28;20436;-75
2023/09/15 00:21:52;;;;;;;26.70;18.00;;;;;;;10.68;100.00;102138.28;5072945;28;20108;-75
2023/09/15 00:24:17;;;;;;;20.90;15.05;;;;;;;10.66;100.00;102131.34;5072864;28;20099;-75
2023/09/15 00:26:43;;;;;;;26.13;18.38;;;;;;;10.67;100.00;102131.25;5072137;28;20468;-75
2023/09/15 00:29:09;;;;;;;26.05;17.23;;;;;;;10.66;100.00;102128.69;5072597;28;20037;-75
2023/09/15 00:31:35;;;;;;;24.55;18.60;;;;;;;10.64;100.00;102127.97;5072819;28;20026;-74
2023/09/15 00:34:00;;;;;;;28.02;19.23;;;;;;;10.63;100.00;102132.44;5073056;28;20039;-75
2023/09/15 00:36:25;;;;;;;26.90;17.90;;;;;;;10.61;100.00;102131.69;5072750;28;20039;-75
2023/09/15 00:38:51;;;;;;;24.02;17.00;;;;;;;10.61;100.00;102131.69;5073147;28;20051;-75
2023/09/15 00:41:18;;;;;;;24.63;16.92;;;;;;;10.58;100.00;102130.09;5072636;28;20028;-75
2023/09/15 00:43:43;;;;;;;28.50;18.50;;;;;;;10.56;100.00;102123.19;5071597;28;20406;-74
2023/09/15 00:46:11;;;;;;;23.75;15.98;;;;;;;10.56;100.00;102129.34;5072147;28;20061;-75
2023/09/15 00:48:39;;;;;;;25.48;18.00;;;;;;;10.54;100.00;102119.78;5071700;28;20036;-74
2023/09/15 00:51:07;;;;;;;21.50;15.60;;;;;;;10.54;100.00;102122.44;5072782;28;20093;-75
2023/09/15 00:53:33;;;;;;;21.02;15.38;;;;;;;10.54;100.00;102125.09;5071594;28;20029;-74
2023/09/15 00:55:59;;;;;;;24.10;17.70;;;;;;;10.53;100.00;102121.56;5071552;28;20380;-75
2023/09/15 00:58:24;;;;;;;23.27;16.15;;;;;;;10.52;100.00;102122.53;5071980;28;20027;-75
2023/09/15 01:00:51;;;;;;;27.50;20.40;;;;;;;10.53;100.00;102121.56;5072677;28;20036;-75
2023/09/15 01:03:20;;;;;;;30.17;20.98;;;;;;;10.55;100.00;102118.81;5072211;28;20506;-75
2023/09/15 01:05:46;;;;;;;30.73;21.73;;;;;;;10.53;100.00;102115.41;5072589;28;20029;-75
2023/09/15 01:08:12;;;;;;;27.90;20.35;;;;;;;10.52;100.00;102119.03;5072292;28;20027;-76
2023/09/15 01:10:38;;;;;;;29.67;21.58;;;;;;;10.50;100.00;102120.94;5070919;28;20028;-75
2023/09/15 01:13:04;;;;;;;24.20;17.67;;;;;;;10.45;100.00;102109.75;5072725;28;20487;-75
2023/09/15 01:15:50;;;;;;;27.02;20.85;;;;;;;10.43;100.00;102111.69;5072032;28;20056;-75
2023/09/15 01:18:37;;;;;;;24.02;16.52;;;;;;;10.39;100.00;102111.06;5072208;28;20020;-75
2023/09/15 01:21:31;;;;;;;30.92;21.27;;;;;;;10.37;100.00;102105.81;5072297;28;20046;-75
2023/09/15 01:24:21;;;;;;;24.50;18.63;;;;;;;10.36;100.00;102103.28;5072476;28;20029;-75
2023/09/15 01:27:05;;;;;;;28.88;19.27;;;;;;;10.32;100.00;102105.28;5072031;28;20056;-75
2023/09/15 01:29:38;;;;;;;28.92;19.77;;;;;;;10.29;100.00;102094.84;5072102;28;20229;-75
2023/09/15 01:32:09;;;;;;;25.92;18.02;;;;;;;10.26;100.00;102091.56;5072326;28;20035;-75
2023/09/15 01:34:38;;;;;;;23.63;17.33;;;;;;;10.23;100.00;102093.47;5071992;28;20028;-75
2023/09/15 01:37:04;;;;;;;37.70;25.73;;;;;;;10.26;100.00;102091.56;5073255;28;20028;-75
2023/09/15 01:39:30;;;;;;;33.88;22.08;;;;;;;10.26;100.00;102094.22;5076014;28;20047;-74
2023/09/15 01:42:00;;;;;;;35.38;22.33;;;;;;;10.23;100.00;102084.63;5074972;28;20028;-75
2023/09/15 01:44:26;;;;;;;33.28;23.08;;;;;;;10.23;100.00;102096.13;5074511;28;20028;-74
2023/09/15 01:46:51;;;;;;;27.05;20.52;;;;;;;10.21;100.00;102095.38;5076294;28;20116;-75
2023/09/15 01:49:18;;;;;;;36.53;25.15;;;;;;;10.22;100.00;102088.25;5075824;28;20123;-75
2023/09/15 01:51:44;;;;;;;39.50;26.33;;;;;;;10.20;100.00;102088.34;5076149;28;20105;-75
2023/09/15 01:54:10;;;;;;;29.85;20.77;;;;;;;10.19;100.00;102081.31;5075863;28;20079;-74
2023/09/15 01:56:36;;;;;;;33.58;24.67;;;;;;;10.17;100.00;102082.41;5073999;28;20414;-74
2023/09/15 01:59:01;;;;;;;29.38;21.75;;;;;;;10.15;100.00;102089.63;5076058;28;20032;-74
2023/09/15 02:01:27;;;;;;;31.67;23.55;;;;;;;10.12;100.00;102082.72;5075616;28;20024;-74
2023/09/15 02:03:52;;;;;;;29.90;20.88;;;;;;;10.12;100.00;102084.50;5074818;28;20060;-74
2023/09/15 02:06:17;;;;;;;40.03;26.70;;;;;;;10.10;100.00;102075.81;5073939;28;20419;-74
2023/09/15 02:08:44;;;;;;;36.38;26.23;;;;;;;10.07;100.00;102072.38;5075493;28;20040;-74
2023/09/15 02:11:10;;;;;;;41.25;26.23;;;;;;;10.06;100.00;102072.47;5075755;28;20033;-74
2023/09/15 02:13:36;;;;;;;38.28;25.85;;;;;;;10.00;100.00;102071.13;5075333;28;20338;-74
2023/09/15 02:16:02;;;;;;;36.13;26.48;;;;;;;9.99;100.00;102071.22;5075315;28;20050;-74
2023/09/15 02:18:28;;;;;;;42.92;27.45;;;;;;;9.98;100.00;102058.88;5075007;28;20025;-74
2023/09/15 02:20:54;;;;;;;45.08;29.55;;;;;;;9.96;100.00;102066.97;5075694;28;20029;-74
2023/09/15 02:23:21;;;;;;;34.33;25.20;;;;;;;9.94;100.00;102068.00;5075211;28;20028;-76
2023/09/15 02:25:46;;;;;;;44.50;29.23;;;;;;;9.91;100.00;102070.88;5075171;28;20111;-74
2023/09/15 02:28:11;;;;;;;40.08;27.80;;;;;;;9.89;100.00;102068.34;5075426;28;20491;-74
2023/09/15 02:30:37;;;;;;;53.20;30.77;;;;;;;9.86;100.00;102065.88;5074854;28;20341;-75
2023/09/15 02:33:03;;;;;;;43.75;28.58;;;;;;;9.86;100.00;102069.38;5075305;28;20029;-74
2023/09/15 02:35:28;;;;;;;45.88;29.40;;;;;;;9.87;100.00;102063.13;5074940;28;20029;-74
2023/09/15 02:37:54;;;;;;;47.50;30.17;;;;;;;9.87;100.00;102067.59;5075221;28;20518;-74
2023/09/15 02:40:20;;;;;;;42.75;28.17;;;;;;;9.84;100.00;102062.50;5075153;28;20391;-74
2023/09/15 02:42:45;;;;;;;51.47;31.08;;;;;;;9.83;100.00;102061.63;5073519;28;20024;-75
2023/09/15 02:45:11;;;;;;;42.47;28.25;;;;;;;9.81;100.00;102057.38;5075153;28;20028;-74
2023/09/15 02:47:36;;;;;;;37.83;27.25;;;;;;;9.77;100.00;102058.53;5074400;28;20377;-74
2023/09/15 02:50:02;;;;;;;41.63;28.25;;;;;;;9.71;100.00;102057.97;5074542;28;20035;-74
2023/09/15 02:52:27;;;;;;;48.53;31.02;;;;;;;9.68;100.00;102060.84;5074608;28;20029;-74
2023/09/15 02:54:53;;;;;;;45.42;30.30;;;;;;;9.67;100.00;102056.50;5075083;28;20448;-74
2023/09/15 02:57:18;;;;;;;56.22;33.15;;;;;;;9.69;100.00;102062.56;5074888;28;20504;-75
2023/09/15 02:59:43;;;;;;;49.13;32.22;;;;;;;9.69;100.00;102059.06;5073512;28;20037;-74
2023/09/15 03:02:12;;;;;;;45.63;30.13;;;;;;;9.67;100.00;102055.66;5074768;28;20027;-74
2023/09/15 03:04:39;;;;;;;46.00;30.55;;;;;;;9.63;100.00;102054.13;5074222;28;20106;-74
2023/09/15 03:07:05;;;;;;;49.10;33.55;;;;;;;9.60;100.00;102049.91;5074799;28;20052;-74
2023/09/15 03:09:31;;;;;;;54.65;33.72;;;;;;;9.61;100.00;102054.25;5072881;28;20063;-75
2023/09/15 03:11:57;;;;;;;59.08;33.33;;;;;;;9.60;100.00;102051.69;5073150;28;20372;-74
2023/09/15 03:14:23;;;;;;;50.33;33.00;;;;;;;9.58;100.00;102046.47;5074565;28;20035;-76
2023/09/15 03:16:48;;;;;;;49.63;33.25;;;;;;;9.58;100.00;102050.94;5074058;28;20024;-77
2023/09/15 03:19:13;;;;;;;56.42;33.97;;;;;;;9.58;100.00;102048.28;5074554;28;20024;-76
2023/09/15 03:21:39;;;;;;;46.10;30.83;;;;;;;9.55;100.00;102045.84;5056179;28;20021;-76
2023/09/15 03:24:05;;;;;;;57.05;34.80;;;;;;;9.51;100.00;102039.91;5074004;28;20039;-76
2023/09/15 03:26:30;;;;;;;56.13;33.95;;;;;;;9.52;100.00;102041.59;5073920;28;20123;-77
2023/09/15 03:28:55;;;;;;;56.08;33.33;;;;;;;9.49;100.00;102039.13;5074330;28;20052;-76
2023/09/15 03:31:21;;;;;;;57.50;35.78;;;;;;;9.48;100.00;102035.63;5073969;28;20055;-76
2023/09/15 03:33:46;;;;;;;44.30;31.23;;;;;;;9.46;100.00;102039.34;5072591;28;20059;-76
2023/09/15 03:36:12;;;;;;;49.92;31.40;;;;;;;9.42;100.00;102038.69;5072927;28;20449;-76
2023/09/15 03:38:37;;;;;;;41.60;26.50;;;;;;;9.40;100.00;102037.09;5073676;28;20037;-77
2023/09/15 03:41:04;;;;;;;57.15;35.20;;;;;;;9.39;100.00;102030.06;5073729;28;20099;-76
2023/09/15 03:43:29;;;;;;;59.95;35.70;;;;;;;9.40;100.00;102034.44;5073636;28;20032;-77
2023/09/15 03:45:56;;;;;;;67.45;39.88;;;;;;;9.41;100.00;102029.03;5073950;28;20448;-76
2023/09/15 03:48:21;;;;;;;68.78;39.58;;;;;;;9.43;100.00;102029.75;5073888;28;20081;-76
2023/09/15 03:50:47;;;;;;;63.60;37.30;;;;;;;9.42;100.00;102035.19;5073453;28;20024;-77
2023/09/15 03:53:12;;;;;;;63.35;38.88;;;;;;;9.41;100.00;102026.38;5073981;28;20024;-76
2023/09/15 03:55:39;;;;;;;56.08;35.50;;;;;;;9.39;100.00;102028.28;5073391;28;20032;-76
2023/09/15 03:58:04;;;;;;;52.83;34.83;;;;;;;9.37;100.00;102024.03;5073986;28;20039;-77
2023/09/15 04:00:30;;;;;;;56.63;34.97;;;;;;;9.34;100.00;102017.97;5072338;28;20024;-76
2023/09/15 04:02:55;;;;;;;56.03;35.55;;;;;;;9.32;100.00;102024.34;5073258;28;20020;-76
2023/09/15 04:05:21;;;;;;;41.95;27.88;;;;;;;9.28;100.00;102028.13;5072209;28;20440;-77
2023/09/15 04:07:47;;;;;;;58.92;35.20;;;;;;;9.26;100.00;102025.59;5073070;28;20457;-77
2023/09/15 04:10:12;;;;;;;48.50;31.58;;;;;;;9.26;100.00;102025.59;5073558;28;20518;-77
2023/09/15 04:12:40;;;;;;;44.72;28.98;;;;;;;9.23;100.00;102019.63;5072990;28;20020;-77
2023/09/15 04:15:05;;;;;;;45.20;27.40;;;;;;;9.20;100.00;102017.19;5073606;28;20033;-76
2023/09/15 04:17:31;;;;;;;39.67;25.27;;;;;;;9.18;100.00;102023.44;5073352;28;20410;-76
2023/09/15 04:19:58;;;;;;;52.65;33.63;;;;;;;9.20;100.00;102027.81;5072875;28;20095;-77
2023/09/15 04:22:24;;;;;;;61.10;37.92;;;;;;;9.21;100.00;102019.72;5073115;28;20028;-74
2023/09/15 04:24:49;;;;;;;52.42;32.70;;;;;;;9.22;100.00;102024.06;5072743;28;20025;-75
2023/09/15 04:27:15;;;;;;;44.75;28.30;;;;;;;9.19;100.00;102021.63;5073154;28;20310;-74
2023/09/15 04:29:56;;;;;;;37.17;25.20;;;;;;;9.13;100.00;102014.06;5072767;28;20429;-76
2023/09/15 04:32:22;;;;;;;37.05;24.17;;;;;;;9.12;100.00;102015.00;5073169;28;20457;-75
2023/09/15 04:34:52;;;;;;;57.78;36.55;;;;;;;9.14;100.00;102026.41;5072539;28;20028;-75
2023/09/15 04:37:18;;;;;;;57.37;32.60;;;;;;;9.14;100.00;102010.47;5072971;28;20462;-75
2023/09/15 04:39:44;;;;;;;59.17;35.20;;;;;;;9.12;100.00;102015.00;5072371;28;20021;-76
2023/09/15 04:42:12;;;;;;;64.10;37.42;;;;;;;9.11;100.00;102010.66;5071768;28;20421;-75
2023/09/15 04:44:41;;;;;;;62.60;37.83;;;;;;;9.13;100.00;102014.06;5072283;28;20032;-76
2023/09/15 04:47:06;;;;;;;54.88;33.67;;;;;;;9.12;100.00;102020.31;5072576;28;20039;-75
2023/09/15 04:49:31;;;;;;;57.90;36.00;;;;;;;9.06;100.00;102010.09;5072600;28;20373;-75
2023/09/15 04:51:57;;;;;;;48.30;28.90;;;;;;;9.03;100.00;102007.66;5071286;28;20368;-75
2023/09/15 04:54:22;;;;;;;50.08;29.40;;;;;;;8.99;100.00;102013.16;5072580;28;20056;-75
2023/09/15 04:56:48;;;;;;;39.75;27.02;;;;;;;8.96;100.00;102010.72;5072284;28;20115;-76
2023/09/15 04:59:16;;;;;;;31.92;22.73;;;;;;;8.93;100.00;102005.59;5071498;28;20032;-76
2023/09/15 05:01:43;;;;;;;64.90;37.58;;;;;;;8.96;100.00;102020.50;5072206;28;20078;-76
2023/09/15 05:04:09;;;;;;;57.53;35.35;;;;;;;8.96;100.00;102016.03;5072594;28;20415;-75
2023/09/15 05:06:34;;;;;;;56.97;34.20;;;;;;;8.95;100.00;102019.63;5072580;28;20120;-75
2023/09/15 05:09:00;;;;;;;43.67;28.33;;;;;;;8.94;100.00;102017.94;5072263;28;20035;-76
2023/09/15 05:11:25;;;;;;;50.83;31.70;;;;;;;8.93;100.00;102026.00;5071118;28;20035;-75
2023/09/15 05:13:50;;;;;;;36.97;24.98;;;;;;;8.91;100.00;102031.41;5072052;28;20469;-76
2023/09/15 05:16:17;;;;;;;42.15;27.65;;;;;;;8.92;100.00;102025.13;5071352;28;20059;-76
2023/09/15 05:18:43;;;;;;;47.42;30.23;;;;;;;8.94;100.00;102025.91;5072229;28;20108;-76
2023/09/15 05:21:08;;;;;;;48.17;31.45;;;;;;;8.94;100.00;102027.69;5071213;28;20078;-77
2023/09/15 05:23:33;;;;;;;43.70;27.85;;;;;;;8.94;100.00;102027.69;5072495;28;20040;-77
2023/09/15 05:25:59;;;;;;;39.13;27.77;;;;;;;8.94;100.00;102030.34;5070779;28;20415;-77
2023/09/15 05:28:24;;;;;;;35.15;24.63;;;;;;;8.94;100.00;102031.22;5072171;28;20380;-77
2023/09/15 05:30:50;;;;;;;48.28;30.10;;;;;;;8.93;100.00;102028.66;5070930;28;20466;-77
2023/09/15 05:33:16;;;;;;;42.25;27.33;;;;;;;8.97;100.00;102030.13;5072620;28;20107;-76
2023/09/15 05:35:41;;;;;;;38.30;25.38;;;;;;;8.99;100.00;102028.25;5072476;28;20036;-77
2023/09/15 05:38:07;;;;;;;32.13;23.10;;;;;;;9.00;100.00;102036.13;5072056;28;20032;-77
2023/09/15 05:40:33;;;;;;;44.75;29.58;;;;;;;9.00;100.00;102035.25;5072033;28;20116;-78
2023/09/15 05:42:58;;;;;;;57.25;33.08;;;;;;;9.04;100.00;102039.41;5070760;28;20032;-76
2023/09/15 05:45:24;;;;;;;32.90;21.65;;;;;;;9.04;100.00;102031.44;5072192;28;20021;-76
2023/09/15 05:47:49;;;;;;;44.20;28.75;;;;;;;9.09;100.00;102032.00;5071966;28;20108;-76
2023/09/15 05:50:15;;;;;;;44.97;29.73;;;;;;;9.13;100.00;102030.84;5071850;28;20509;-76
2023/09/15 05:52:40;;;;;;;61.38;34.95;;;;;;;9.19;100.00;102029.59;5072151;28;20032;-75
2023/09/15 05:55:06;;;;;;;48.03;31.70;;;;;;;9.24;100.00;102031.94;5071849;28;20452;-75
2023/09/15 05:57:31;;;;;;;57.13;33.78;;;;;;;9.25;100.00;102031.84;5072156;28;20464;-77
2023/09/15 05:59:57;;;;;;;50.22;30.30;;;;;;;9.29;100.00;102032.50;5070555;28;20028;-78
2023/09/15 06:02:22;;;;;;;52.70;32.13;;;;;;;9.32;100.00;102030.47;5072136;28;20025;-77
2023/09/15 06:04:49;;;;;;;60.83;35.00;;;;;;;9.37;100.00;102034.66;5071700;28;20078;-77
2023/09/15 06:07:15;;;;;;;64.13;36.30;;;;;;;9.43;100.00;102037.72;5071890;28;20533;-77
2023/09/15 06:09:40;;;;;;;57.20;34.67;;;;;;;9.49;100.00;102033.81;5070775;28;20086;-77
2023/09/15 06:12:05;;;;;;;54.70;33.03;;;;;;;9.52;100.00;102037.13;5070284;28;20086;-77
2023/09/15 06:14:35;;;;;;;58.30;35.15;;;;;;;9.59;100.00;102042.88;5071996;28;20039;-77
2023/09/15 06:17:02;;;;;;;59.67;34.88;;;;;;;9.65;100.00;102044.28;5070263;28;20043;-77
2023/09/15 06:19:28;;;;;;;59.88;35.53;;;;;;;9.68;100.00;102041.41;5071898;28;20027;-77
2023/09/15 06:21:53;;;;;;;58.30;33.75;;;;;;;9.73;100.00;102051.72;5070033;28;20021;-77
2023/09/15 06:24:18;;;;;;;61.63;36.20;;;;;;;9.76;100.00;102043.53;5073064;28;20020;-77
2023/09/15 06:26:44;;;;;;;64.57;36.83;;;;;;;9.81;100.00;102052.91;5075405;28;20369;-77
2023/09/15 06:29:12;;;;;;;55.17;34.78;;;;;;;9.87;100.00;102052.50;5074810;28;20457;-77
2023/09/15 06:31:37;;;;;;;61.08;34.05;;;;;;;9.92;100.00;102049.50;5075476;28;20067;-77
2023/09/15 06:34:03;;;;;;;62.55;36.63;;;;;;;9.99;100.00;102053.47;5074739;28;20107;-77
2023/09/15 06:36:28;;;;;;;60.45;36.90;;;;;;;10.06;100.00;102049.41;5074196;28;20514;-77
2023/09/15 06:38:54;;;;;;;59.33;34.80;;;;;;;10.13;100.00;102046.34;5075282;28;20024;-77
2023/09/15 06:41:20;;;;;;;67.68;37.50;;;;;;;10.22;100.00;102043.03;5073835;28;20191;-76
2023/09/15 06:43:45;;;;;;;57.33;33.28;;;;;;;10.30;100.00;102034.50;5075506;28;20028;-77
2023/09/15 06:46:10;;;;;;;61.03;35.53;;;;;;;10.40;100.00;102038.25;5074706;28;20460;-77
2023/09/15 06:48:36;;;;;;;59.67;35.80;;;;;;;10.49;100.00;102029.59;5075185;28;20033;-77
2023/09/15 06:51:01;;;;;;;62.55;36.42;;;;;;;10.57;100.00;102029.94;5056848;28;20360;-77
2023/09/15 06:53:27;;;;;;;67.28;35.30;;;;;;;10.66;100.00;102024.88;5074741;28;20422;-76
2023/09/15 06:55:55;;;;;;;62.50;36.00;;;;;;;10.76;100.00;102029.47;5075054;28;20033;-77
2023/09/15 06:58:23;;;;;;;58.63;35.58;;;;;;;10.88;100.00;102034.84;5074531;28;20460;-77
2023/09/15 07:00:48;;;;;;;61.22;34.67;;;;;;;10.99;100.00;102034.91;5075052;28;20032;-77
2023/09/15 07:03:13;;;;;;;59.50;33.90;;;;;;;11.10;100.00;102028.78;5074532;28;20024;-76
2023/09/15 07:05:39;;;;;;;59.25;32.90;;;;;;;11.22;100.00;102027.03;5074753;28;20035;-77
2023/09/15 07:08:04;;;;;;;52.90;31.92;;;;;;;11.32;100.00;102029.88;5074144;28;20119;-77
2023/09/15 07:10:30;;;;;;;55.67;31.20;;;;;;;11.41;100.00;102032.69;5073210;28;20035;-75
2023/09/15 07:12:55;;;;;;;46.97;31.08;;;;;;;11.51;100.00;102032.84;5073599;28;20028;-75
2023/09/15 07:15:20;;;;;;;51.85;29.63;;;;;;;11.62;100.00;102037.34;5074252;28;20115;-76
2023/09/15 07:17:46;;;;;;;43.25;28.60;;;;;;;11.72;100.00;102032.16;5074398;28;20031;-75
2023/09/15 07:20:11;;;;;;;43.80;28.25;;;;;;;11.83;100.00;102040.19;5074274;28;20037;-75
2023/09/15 07:22:37;;;;;;;36.35;25.30;;;;;;;11.94;100.00;102042.06;5073485;28;20042;-78
2023/09/15 07:25:02;;;;;;;37.65;25.33;;;;;;;12.03;100.00;102037.81;5074004;28;20024;-78
2023/09/15 07:27:27;;;;;;;36.97;23.88;;;;;;;12.11;100.00;102035.44;5072921;28;20051;-78
2023/09/15 07:29:53;;;;;;;37.08;23.30;;;;;;;12.25;100.00;102026.34;5074730;28;20035;-77
2023/09/15 07:32:18;;;;;;;36.80;23.15;;;;;;;12.39;100.00;102025.22;5072440;28;20036;-77
2023/09/15 07:34:44;;;;;;;31.67;22.17;;;;;;;12.50;100.00;102028.75;5074487;28;20033;-77
2023/09/15 07:37:10;;;;;;;31.58;21.90;;;;;;;12.62;100.00;102023.41;5074096;28;20037;-77
2023/09/15 07:39:35;;;;;;;34.42;20.95;;;;;;;12.72;100.00;102020.81;5073905;28;20025;-74
2023/09/15 07:42:01;;;;;;;27.23;19.30;;;;;;;12.82;100.00;102017.31;5072849;28;20476;-75
2023/09/15 07:44:26;;;;;;;26.17;18.63;;;;;;;12.94;100.00;102014.59;5073602;28;20025;-77
2023/09/15 07:46:51;;;;;;;27.23;18.65;;;;;;;13.07;100.00;102011.75;5074413;28;20034;-76
2023/09/15 07:49:18;;;;;;;25.42;18.70;;;;;;;13.17;100.00;102012.69;5073508;28;20445;-77
2023/09/15 07:51:43;;;;;;;24.05;17.40;;;;;;;13.27;100.00;102016.31;5073829;28;20484;-77
2023/09/15 07:54:09;;;;;;;23.73;17.17;;;;;;;13.36;100.00;102004.88;5072076;28;20043;-77
2023/09/15 07:56:36;;;;;;;26.13;18.20;;;;;;;13.50;100.00;102005.53;5073588;28;20040;-77
2023/09/15 07:59:03;;;;;;;27.80;17.20;;;;;;;13.61;100.00;102000.09;5073827;28;20380;-77
2023/09/15 08:01:28;;;;;;;22.13;15.52;;;;;;;13.75;100.00;101999.78;5071847;28;20025;-77
2023/09/15 08:03:54;;;;;;;20.73;15.52;;;;;;;13.89;100.00;102005.78;5073709;28;20039;-76
2023/09/15 08:06:19;;;;;;;20.85;14.50;;;;;;;14.02;100.00;101998.38;5073259;28;20368;-75
2023/09/15 08:08:44;;;;;;;19.30;14.60;;;;;;;14.24;100.00;101999.16;5073862;28;20029;-75
2023/09/15 08:11:10;;;;;;;23.50;14.82;;;;;;;14.57;100.00;102008.72;5073292;28;20028;-76
2023/09/15 08:13:35;;;;;;;21.48;13.85;;;;;;;14.95;100.00;101999.09;5073455;28;20021;-75
2023/09/15 08:16:01;;;;;;;18.33;13.18;;;;;;;15.32;100.00;101994.88;5072126;28;20028;-75
2023/09/15 08:18:27;;;;;;;16.50;12.50;;;;;;;15.59;100.00;101991.44;5073030;28;20056;-75
2023/09/15 08:20:53;;;;;;;17.52;12.40;;;;;;;15.89;100.00;101984.19;5073432;28;20483;-76
2023/09/15 08:23:18;;;;;;;14.93;11.98;;;;;;;16.17;100.00;101986.94;5073172;28;20029;-76
2023/09/15 08:25:44;;;;;;;17.60;13.02;;;;;;;16.43;100.00;101983.56;5071604;28;20043;-75
2023/09/15 08:28:09;;;;;;;16.60;11.35;;;;;;;16.72;100.00;101978.84;5073247;28;20044;-77
2023/09/15 08:30:38;;;;;;;14.40;11.25;;;;;;;17.11;100.00;101993.88;5073114;28;20480;-76
2023/09/15 08:33:05;;;;;;;15.07;10.93;;;;;;;17.46;100.00;101986.75;5073285;28;20051;-76
2023/09/15 08:35:30;;;;;;;17.75;11.32;;;;;;;17.95;100.00;101987.09;5072458;28;20715;-76
2023/09/15 08:37:56;;;;;;;17.25;10.55;;;;;;;18.65;100.00;101991.44;5073351;28;20032;-75
2023/09/15 08:40:21;;;;;;;14.98;10.45;;;;;;;19.40;100.00;101980.75;5072326;28;20032;-76
2023/09/15 08:42:47;;;;;;;19.48;10.15;;;;;;;19.98;100.00;101974.25;5072990;28;20032;-77
2023/09/15 08:45:14;;;;;;;19.52;9.65;;;;;;;20.56;100.00;101971.28;5071165;28;20029;-77
2023/09/15 08:47:43;;;;;;;14.27;9.85;;;;;;;21.04;100.00;101969.28;5072351;28;20037;-76
2023/09/15 08:50:09;;;;;;;11.00;8.82;;;;;;;21.47;100.00;101969.59;5072641;28;20020;-76
2023/09/15 08:52:36;;;;;;;12.63;7.75;;;;;;;21.75;100.00;101977.16;5072461;28;20025;-76
2023/09/15 08:55:03;;;;;;;11.02;8.80;;;;;;;22.15;100.00;101977.69;5073207;28;20036;-76
2023/09/15 08:57:30;;;;;;;10.13;7.78;;;;;;;22.56;100.00;101975.47;5072413;28;20368;-76
2023/09/15 08:59:57;;;;;;;11.75;7.95;;;;;;;22.89;100.00;101976.69;5072807;28;20146;-76
2023/09/15 09:02:24;;;;;;;9.90;7.60;;;;;;;23.38;100.00;101977.78;5072042;28;20507;-77
2023/09/15 09:04:50;;;;;;;12.40;7.78;;;;;;;23.19;86.81;101968.44;5072712;28;20107;-76
2023/09/15 09:07:16;;;;;;;13.18;7.50;;;;;;;23.30;91.06;101968.94;5072636;28;20456;-76
2023/09/15 09:09:44;;;;;;;15.10;7.78;;;;;;;23.56;96.22;101963.72;5072672;28;20029;-76
2023/09/15 09:12:09;;;;;;;9.25;7.03;;;;;;;23.62;83.12;101964.78;5072695;28;20033;-77
2023/09/15 09:14:35;;;;;;;12.90;7.47;;;;;;;23.88;90.52;101966.03;5072120;28;20090;-77
2023/09/15 09:17:01;;;;;;;12.48;7.03;;;;;;;23.90;79.99;101953.91;5072316;28;20019;-77
2023/09/15 09:19:42;;;;;;;10.20;7.57;;;;;;;24.35;79.21;101953.47;5071039;28;20033;-77
2023/09/15 09:22:09;;;;;;;15.55;8.15;;;;;;;24.69;80.06;101942.72;5072449;28;20086;-77
2023/09/15 09:24:36;;;;;;;10.88;7.13;;;;;;;24.55;76.30;101945.38;5071985;28;20028;-76
2023/09/15 09:27:11;;;;;;;10.23;8.00;;;;;;;24.12;70.50;101956.50;5072482;28;20048;-76
2023/09/15 09:29:37;;;;;;;14.75;8.23;;;;;;;23.86;76.97;101946.38;5072243;28;20028;-76
2023/09/15 09:32:04;;;;;;;17.02;8.65;;;;;;;23.96;79.66;101946.00;5072510;28;20025;-76
2023/09/15 09:34:29;;;;;;;10.80;7.53;;;;;;;24.29;79.46;101936.09;5071957;28;20036;-76
2023/09/15 09:36:55;;;;;;;11.07;8.32;;;;;;;24.63;67.28;101933.47;5072095;28;20094;-75
2023/09/15 09:39:21;;;;;;;11.13;7.78;;;;;;;24.77;66.37;101934.38;5072244;28;20028;-77
2023/09/15 09:41:46;;;;;;;11.68;7.47;;;;;;;25.18;72.76;101927.88;5072300;28;20502;-76
2023/09/15 09:44:14;;;;;;;10.13;7.75;;;;;;;25.47;71.31;101925.78;5071987;28;20031;-76
2023/09/15 09:46:40;;;;;;;12.95;8.40;;;;;;;25.52;60.83;101928.69;5071870;28;20029;-77
2023/09/15 09:49:06;;;;;;;10.18;7.97;;;;;;;25.65;64.25;101930.56;5072448;28;20116;-77
2023/09/15 09:51:35;;;;;;;9.27;8.02;;;;;;;25.75;60.80;101930.97;5071559;28;20020;-76
2023/09/15 09:54:01;;;;;;;10.48;7.40;;;;;;;25.67;59.51;101923.00;5072185;28;20061;-76
2023/09/15 09:56:26;;;;;;;10.30;7.25;;;;;;;25.76;62.63;101919.00;5070390;28;20406;-77
2023/09/15 09:58:52;;;;;;;10.80;7.28;;;;;;;25.44;59.72;101928.91;5072704;28;20031;-77
2023/09/15 10:01:18;;;;;;;8.90;7.45;;;;;;;25.51;62.96;101921.56;5075855;28;20460;-77
2023/09/15 10:03:43;;;;;;;9.85;7.45;;;;;;;25.23;56.83;101921.78;5075496;28;20457;-77
2023/09/15 10:06:09;;;;;;;9.95;7.13;;;;;;;25.57;61.23;101920.72;5075862;28;20033;-77
2023/09/15 10:08:39;;;;;;;7.47;5.68;;;;;;;25.91;60.58;101917.91;5075438;28;20034;-78
2023/09/15 10:11:06;;;;;;;10.85;6.85;;;;;;;26.33;57.82;101923.81;5075853;28;20033;-77
2023/09/15 10:13:32;;;;;;;6.88;5.97;;;;;;;26.85;55.29;101921.81;5074213;28;20032;-78
2023/09/15 10:16:00;;;;;;;10.52;5.97;;;;;;;26.79;51.30;101916.44;5075544;28;20036;-77
2023/09/15 10:18:26;;;;;;;8.63;6.00;;;;;;;26.99;58.19;101914.38;5075431;28;20048;-77
2023/09/15 10:20:55;;;;;;;11.52;6.30;;;;;;;26.78;51.28;101910.09;5075769;28;20448;-77
2023/09/15 10:23:22;;;;;;;7.32;5.70;;;;;;;26.89;54.87;101903.94;5075517;28;20029;-78
2023/09/15 10:25:54;;;;;;;7.82;5.40;;;;;;;26.76;57.39;101906.78;5075149;28;20031;-78
2023/09/15 10:28:23;;;;;;;12.57;6.50;;;;;;;26.79;55.93;101898.13;5075726;28;20408;-78
2023/09/15 10:30:54;;;;;;;10.38;6.32;;;;;;;26.61;59.99;101901.59;5057262;28;20066;-77
2023/09/15 10:33:25;;;;;;;;;;;;;;;26.73;59.36;101897.13;5074904;28;20341;-78
2023/09/15 10:35:51;;;;;;;9.35;7.03;;;;;;;26.53;61.85;101886.34;5074854;28;19954;-77
2023/09/15 10:38:29;;;;;;;13.32;7.90;;;;;;;25.97;55.58;101892.50;5075550;28;20360;-76
2023/09/15 10:40:56;;;;;;;13.82;7.95;;;;;;;25.60;58.99;101881.31;5075141;28;20031;-76
2023/09/15 10:43:22;;;;;;;8.00;7.20;;;;;;;25.21;64.82;101885.78;5075308;28;20031;-78
2023/09/15 10:45:57;;;;;;;8.50;7.22;;;;;;;24.76;63.40;101879.09;5074887;28;20020;-79
2023/09/15 10:48:55;;;;;;;10.73;6.65;;;;;;;24.46;71.62;101882.16;5073912;28;20390;-77
2023/09/15 10:51:22;;;;;;;10.48;7.18;;;;;;;24.06;70.00;101878.50;5051581;28;20074;-77
2023/09/15 10:53:49;;;;;;;11.55;7.25;;;;;;;23.67;75.60;101880.81;5073053;28;20036;-77
2023/09/15 10:56:19;;;;;;;11.77;6.80;;;;;;;23.03;72.05;101876.41;5073525;28;20469;-77
2023/09/15 10:58:48;;;;;;;11.70;7.10;;;;;;;23.08;78.96;101882.09;5074224;28;20024;-77
2023/09/15 11:01:18;;;;;;;11.48;7.80;;;;;;;22.96;81.25;101870.06;5074997;28;20027;-77
2023/09/15 11:03:44;;;;;;;11.88;8.18;;;;;;;22.77;84.18;101868.91;5074437;28;20028;-77
2023/09/15 11:06:19;;;;;;;12.50;8.15;;;;;;;22.68;94.37;101865.47;5074571;28;20031;-77
2023/09/15 11:08:45;;;;;;;12.60;7.90;;;;;;;22.62;80.49;101853.53;5073222;28;20023;-77